Mount Carroll, IL (61053)

3:49 AM CDT on August 31, 2015 (GMT -0500)
Aspen Drive | | Change Station
CLOSE
Current Station
Personal Weather Station
Location: Mt. Carroll, IL
Elevation: 810 ft
Nearby Weather Stations

Elev 810 ft 42.09 °N, 89.98 °W | Updated 4 minutes ago

Fog
Fog
58.0 °F
Feels Like 58.0 °F
N
0.0
Wind Variable Wind from North
Gusts 0.0 mph

Today
High -- | Low -- °F
--% Chance of Precip.
Yesterday
High -- | Low -- °F
Precip. -- in
6:24 AM 7:35 PM
Waning Gibbous, 96% visible
Pressure 30.02 in
Visibility 0.5 miles
Clouds
Dew Point 57 °F
Humidity 95%
Rainfall 0.00 in
Snow Depth Not available.
UV Not available.
Pollen 10.00 out of 12
Air Quality Not available.
Flu Activity Not available.
METAR KSFY 310815Z AUTO 04003KT 1/2SM FG VV005 15/14 A3002 RMK AO2 T01510144
Pressure 30.02 in
Visibility 0.5 miles
Clouds
Dew Point 57 °F
Humidity 95%
Rainfall 0.00 in
Snow Depth Not available.
UV Not available.
Pollen 10.00 out of 12
Air Quality Not available.
Flu Activity Not available.
METAR KSFY 310815Z AUTO 04003KT 1/2SM FG VV005 15/14 A3002 RMK AO2 T01510144

10-Day Weather Forecast

×

Almanac

Astronomy

Aug. 31, 2015 Rise Set
Actual Time
Civil Twilight
Nautical Twilight
Astronomical Twilight
Moon
Length of Visible Light
Length of Day
Tomorrow will be .
, % of the Moon is Illuminated

Today's Extremes

State Highs State Lows

Community

WunderPhotos

Upload Photos

1,851,220 photos uploaded!

WunderBlogs® & News

Nearby

Air Quality

  Air Quality AQ Index Pollutant
Not available.

Snow Depth

Station Depth Elevation

Earthquake Activity

City Distance Mag. Time & Date
Minimum magnitude displayed is 2.5.

Coastal Water Temperatures

Place Temperature

Stations

Nearby Weather Stations

Station Location Temp. Windchill Dew Point Humidity Wind Precip. Elev Updated Type